createdAt,value
2022-11-27T00:01:12.393Z,101728.53
2022-11-27T00:03:39.878Z,101722.44
2022-11-27T00:06:07.529Z,101719.75
2022-11-27T00:08:34.331Z,101718.81
2022-11-27T00:11:09.002Z,101712.66
2022-11-27T00:13:35.586Z,101715.28
2022-11-27T00:16:02.665Z,101678.56
2022-11-27T00:18:29.301Z,101664.56
2022-11-27T00:20:56.068Z,101678.53
2022-11-27T00:23:22.570Z,101679.38
2022-11-27T00:25:53.147Z,101696.78
2022-11-27T00:28:20.317Z,101693.28
2022-11-27T00:30:47.423Z,101690.66
2022-11-27T00:33:13.966Z,101689.81
2022-11-27T00:35:40.972Z,101688.03
2022-11-27T00:38:08.071Z,101677.50
2022-11-27T00:40:34.739Z,101673.09
2022-11-27T00:43:01.795Z,101679.25
2022-11-27T00:45:29.882Z,101681.00
2022-11-27T00:47:56.444Z,101669.63
2022-11-27T00:50:22.983Z,101658.25
2022-11-27T00:52:49.591Z,101666.97
2022-11-27T00:55:16.102Z,101657.31
2022-11-27T00:57:42.609Z,101665.22
2022-11-27T01:00:09.744Z,101669.63
2022-11-27T01:02:36.320Z,101667.03
2022-11-27T01:05:02.913Z,101662.63
2022-11-27T01:07:29.473Z,101656.50
2022-11-27T01:09:56.004Z,101654.81
2022-11-27T01:12:22.535Z,101652.19
2022-11-27T01:14:49.093Z,101631.22
2022-11-27T01:17:15.624Z,101641.63
2022-11-27T01:19:42.180Z,101632.94
2022-11-27T01:22:08.734Z,101634.63
2022-11-27T01:24:35.378Z,101620.66
2022-11-27T01:27:01.894Z,101625.00
2022-11-27T01:29:28.383Z,101639.81
2022-11-27T01:31:54.925Z,101625.84
2022-11-27T01:34:21.516Z,101614.53
2022-11-27T01:36:48.380Z,101624.06
2022-11-27T01:39:20.214Z,101626.69
2022-11-27T01:41:48.645Z,101632.91
2022-11-27T01:44:24.225Z,101630.34
2022-11-27T01:46:55.860Z,101633.03
2022-11-27T01:49:35.442Z,101621.66
2022-11-27T01:52:07.437Z,101620.78
2022-11-27T01:54:45.544Z,101621.75
2022-11-27T01:57:33.049Z,101628.75
2022-11-27T02:00:01.500Z,101629.63
2022-11-27T02:02:28.726Z,101633.16
2022-11-27T02:04:55.742Z,101629.75
2022-11-27T02:07:22.494Z,101633.34
2022-11-27T02:09:49.248Z,101608.06
2022-11-27T02:12:43.486Z,101625.44
2022-11-27T02:15:41.476Z,101627.19
2022-11-27T02:18:29.457Z,101613.25
2022-11-27T02:21:10.786Z,101603.66
2022-11-27T02:23:49.307Z,101608.91
2022-11-27T02:26:18.668Z,101616.81
2022-11-27T02:29:10.424Z,101605.50
2022-11-27T02:32:20.818Z,101611.72
2022-11-27T02:34:53.250Z,101605.66
2022-11-27T02:37:32.047Z,101608.34
2022-11-27T02:40:36.810Z,101602.28
2022-11-27T02:43:15.823Z,101601.44
2022-11-27T02:45:45.117Z,101601.47
2022-11-27T02:48:15.317Z,101591.94
2022-11-27T02:50:44.467Z,101597.19
2022-11-27T02:53:33.561Z,101594.53
2022-11-27T02:56:02.181Z,101587.53
2022-11-27T02:58:29.832Z,101594.47
2022-11-27T03:00:57.939Z,101591.81
2022-11-27T03:03:29.592Z,101579.53
2022-11-27T03:06:04.135Z,101576.03
2022-11-27T03:08:38.310Z,101574.38
2022-11-27T03:11:08.408Z,101573.53
2022-11-27T03:13:39.862Z,101561.38
2022-11-27T03:16:22.841Z,101586.69
2022-11-27T03:19:09.676Z,101580.63
2022-11-27T03:21:40.766Z,101589.38
2022-11-27T03:24:08.506Z,101592.88
2022-11-27T03:26:35.600Z,101574.53
2022-11-27T03:29:04.719Z,101566.69
2022-11-27T03:31:31.839Z,101563.25
2022-11-27T03:33:59.082Z,101572.91
2022-11-27T03:36:25.618Z,101572.97
2022-11-27T03:38:54.272Z,101574.75
2022-11-27T03:41:53.242Z,101546.91
2022-11-27T03:44:26.683Z,101573.06
2022-11-27T03:47:17.943Z,101543.41
2022-11-27T03:50:11.695Z,101553.84
2022-11-27T03:52:59.357Z,101558.22
2022-11-27T03:55:33.525Z,101548.59
2022-11-27T03:58:14.289Z,101544.25
2022-11-27T04:00:42.237Z,101540.75
2022-11-27T04:03:11.491Z,101540.78
2022-11-27T04:05:38.406Z,101543.44
2022-11-27T04:08:05.164Z,101546.09
2022-11-27T04:10:31.803Z,101515.53
2022-11-27T04:12:58.294Z,101543.50
2022-11-27T04:15:24.865Z,101545.28
2022-11-27T04:17:51.416Z,101539.16
2022-11-27T04:20:18.007Z,101511.25
2022-11-27T04:22:44.588Z,101534.84
2022-11-27T04:25:11.540Z,101527.84
2022-11-27T04:27:38.060Z,101536.59
2022-11-27T04:30:05.219Z,101534.78
2022-11-27T04:32:32.107Z,101532.22
2022-11-27T04:34:58.650Z,101520.88
2022-11-27T04:37:25.436Z,101517.38
2022-11-27T04:39:52.012Z,101512.13
2022-11-27T04:42:18.616Z,101507.81
2022-11-27T04:44:45.159Z,101491.25
2022-11-27T04:47:11.842Z,101510.44
2022-11-27T04:49:38.816Z,101506.94
2022-11-27T04:52:05.535Z,101506.13
2022-11-27T04:54:32.592Z,101510.50
2022-11-27T04:56:59.117Z,101509.63
2022-11-27T04:59:25.804Z,101508.75
2022-11-27T05:01:52.319Z,101501.78
2022-11-27T05:04:18.916Z,101498.28
2022-11-27T05:06:45.617Z,101515.78
2022-11-27T05:09:12.265Z,101516.66
2022-11-27T05:11:38.868Z,101511.41
2022-11-27T05:14:22.648Z,101511.41
2022-11-27T05:16:51.649Z,101514.94
2022-11-27T05:19:20.225Z,101506.22
2022-11-27T05:21:48.641Z,101501.84
2022-11-27T05:24:16.910Z,101501.00
2022-11-27T05:26:43.888Z,101493.13
2022-11-27T05:29:11.664Z,101495.75
2022-11-27T05:31:38.325Z,101486.19
2022-11-27T05:34:05.399Z,101491.41
2022-11-27T05:36:33.130Z,101494.03
2022-11-27T05:39:00.455Z,101491.41
2022-11-27T05:41:27.360Z,101485.31
2022-11-27T05:43:53.972Z,101501.03
2022-11-27T05:46:22.446Z,101498.41
2022-11-27T05:48:49.717Z,101499.28
2022-11-27T05:51:17.386Z,101490.53
2022-11-27T05:53:43.932Z,101505.38
2022-11-27T05:56:13.472Z,101500.16
2022-11-27T05:58:41.400Z,101468.75
2022-11-27T06:01:09.158Z,101490.53
2022-11-27T06:03:36.190Z,101488.78
2022-11-27T06:06:07.894Z,101480.06
2022-11-27T06:08:35.915Z,101472.19
2022-11-27T06:11:24.312Z,101439.06
2022-11-27T06:13:51.085Z,101468.66
2022-11-27T06:16:23.541Z,101460.84
2022-11-27T06:18:55.035Z,101471.31
2022-11-27T06:21:23.045Z,101473.94
2022-11-27T06:23:52.826Z,101455.66
2022-11-27T06:26:24.435Z,101468.72
2022-11-27T06:28:51.796Z,101438.19
2022-11-27T06:31:21.188Z,101423.34
2022-11-27T06:33:49.258Z,101429.44
2022-11-27T06:36:16.469Z,101453.91
2022-11-27T06:38:43.215Z,101460.00
2022-11-27T06:41:13.338Z,101460.88
2022-11-27T06:43:40.035Z,101453.06
2022-11-27T06:46:09.587Z,101451.28
2022-11-27T06:48:36.179Z,101445.19
2022-11-27T06:51:07.757Z,101448.66
2022-11-27T06:53:36.577Z,101447.78
2022-11-27T06:56:08.966Z,101451.28
2022-11-27T06:58:36.746Z,101443.38
2022-11-27T07:01:07.937Z,101431.19
2022-11-27T07:03:35.360Z,101438.19
2022-11-27T07:06:04.125Z,101422.50
2022-11-27T07:08:31.723Z,101437.34
2022-11-27T07:11:07.319Z,101437.34
2022-11-27T07:13:33.939Z,101439.09
2022-11-27T07:16:01.920Z,101433.84
2022-11-27T07:18:29.996Z,101434.72
2022-11-27T07:20:57.003Z,101427.72
2022-11-27T07:23:23.805Z,101409.44
2022-11-27T07:25:50.406Z,101417.25
2022-11-27T07:28:19.127Z,101397.22
2022-11-27T07:30:46.394Z,101398.97
2022-11-27T07:33:13.085Z,101412.91
2022-11-27T07:35:39.643Z,101408.56
2022-11-27T07:38:06.220Z,101446.06
2022-11-27T07:40:32.810Z,101442.56
2022-11-27T07:42:59.578Z,101450.44
2022-11-27T07:45:26.583Z,101446.94
2022-11-27T07:47:53.120Z,101447.81
2022-11-27T07:50:19.663Z,101442.53
2022-11-27T07:52:46.218Z,101441.66
2022-11-27T07:55:12.906Z,101446.91
2022-11-27T07:57:39.846Z,101439.88
2022-11-27T08:00:06.998Z,101435.53
2022-11-27T08:02:33.524Z,101429.41
2022-11-27T08:05:00.139Z,101434.66
2022-11-27T08:07:30.723Z,101412.81
2022-11-27T08:10:00.642Z,101382.25
2022-11-27T08:12:27.300Z,101383.06
2022-11-27T08:14:54.095Z,101404.81
2022-11-27T08:17:20.779Z,101382.09
2022-11-27T08:19:47.332Z,101366.38
2022-11-27T08:22:14.899Z,101398.63
2022-11-27T08:24:42.718Z,101402.97
2022-11-27T08:27:10.098Z,101405.59
2022-11-27T08:29:37.402Z,101391.66
2022-11-27T08:32:04.999Z,101401.25
2022-11-27T08:34:32.070Z,101394.25
2022-11-27T08:36:58.725Z,101388.16
2022-11-27T08:39:26.685Z,101396.88
2022-11-27T08:41:54.054Z,101409.09
2022-11-27T08:44:20.773Z,101414.34
2022-11-27T08:46:47.466Z,101406.50
2022-11-27T08:49:14.058Z,101403.88
2022-11-27T08:51:40.608Z,101355.91
2022-11-27T08:54:07.565Z,101372.50
2022-11-27T08:56:34.419Z,101365.50
2022-11-27T08:59:01.005Z,101394.22
2022-11-27T09:01:31.000Z,101396.88
2022-11-27T09:03:58.091Z,101392.44
2022-11-27T09:06:29.552Z,101378.41
2022-11-27T09:08:58.462Z,101358.31
2022-11-27T09:11:25.556Z,101371.34
2022-11-27T09:13:52.117Z,101377.44
2022-11-27T09:16:20.604Z,101381.00
2022-11-27T09:18:50.153Z,101375.72
2022-11-27T09:21:18.727Z,101376.56
2022-11-27T09:23:45.512Z,101378.31
2022-11-27T09:26:14.948Z,101358.22
2022-11-27T09:28:42.062Z,101365.13
2022-11-27T09:31:12.022Z,101358.94
2022-11-27T09:33:40.172Z,101370.34
2022-11-27T09:36:09.364Z,101362.44
2022-11-27T09:38:36.402Z,101362.38
2022-11-27T09:41:26.099Z,101362.38
2022-11-27T09:43:57.741Z,101361.34
2022-11-27T09:46:36.929Z,101353.44
2022-11-27T09:49:12.483Z,101348.16
2022-11-27T09:51:58.179Z,101346.41
2022-11-27T09:54:26.060Z,101344.78
2022-11-27T09:56:56.323Z,101330.81
2022-11-27T09:59:29.562Z,101320.31
2022-11-27T10:01:57.228Z,101322.03
2022-11-27T10:04:25.252Z,101310.66
2022-11-27T10:06:54.610Z,101308.81
2022-11-27T10:09:53.005Z,101296.44
2022-11-27T10:12:41.313Z,101302.31
2022-11-27T10:15:11.144Z,101289.00
2022-11-27T10:17:52.399Z,101294.97
2022-11-27T10:20:47.120Z,101296.47
2022-11-27T10:23:20.659Z,101287.31
2022-11-27T10:25:50.641Z,101268.56
2022-11-27T10:28:46.329Z,101280.47
2022-11-27T10:31:31.735Z,101264.59
2022-11-27T10:34:23.558Z,101260.44
2022-11-27T10:36:52.119Z,101266.47
2022-11-27T10:39:42.547Z,101263.97
2022-11-27T10:42:34.547Z,101250.63
2022-11-27T10:45:05.976Z,101244.19
2022-11-27T10:47:34.083Z,101225.72
2022-11-27T10:50:01.321Z,101246.41
2022-11-27T10:52:28.138Z,101236.75
2022-11-27T10:55:04.547Z,101229.88
2022-11-27T10:57:34.299Z,101203.78
2022-11-27T11:00:25.150Z,101224.47
2022-11-27T11:03:01.437Z,101218.16
2022-11-27T11:08:20.116Z,101217.00
2022-11-27T11:10:54.654Z,101196.22
2022-11-27T11:13:31.656Z,101197.78
2022-11-27T11:16:06.004Z,101197.66
2022-11-27T11:18:35.790Z,101193.25
2022-11-27T11:21:07.325Z,101177.50
2022-11-27T11:23:40.940Z,101172.16
2022-11-27T11:26:29.705Z,101158.91
2022-11-27T11:28:59.378Z,101153.69
2022-11-27T11:31:39.123Z,101144.88
2022-11-27T11:34:27.395Z,101139.56
2022-11-27T11:36:59.026Z,101139.53
2022-11-27T11:39:49.053Z,101141.06
2022-11-27T11:42:22.161Z,101133.06
2022-11-27T11:44:54.830Z,101131.97
2022-11-27T11:47:25.019Z,101125.94
2022-11-27T11:49:53.935Z,101123.19
2022-11-27T11:52:23.133Z,101128.28
2022-11-27T11:55:21.467Z,101095.06
2022-11-27T11:58:13.595Z,101103.63
2022-11-27T12:01:18.955Z,101107.91
2022-11-27T12:03:37.446Z,101104.13
2022-11-27T12:06:21.408Z,101120.59
2022-11-27T12:08:53.861Z,101119.44
2022-11-27T12:11:43.179Z,101114.97
2022-11-27T12:14:25.920Z,101116.97
2022-11-27T12:17:20.577Z,101108.41
2022-11-27T12:20:21.937Z,101097.78
2022-11-27T12:23:01.519Z,101094.78
2022-11-27T12:25:32.753Z,101077.25
2022-11-27T12:28:20.940Z,101094.38
2022-11-27T12:31:05.892Z,101083.91
2022-11-27T12:33:45.462Z,101081.19
2022-11-27T12:36:40.097Z,101077.41
2022-11-27T12:39:20.324Z,101062.28
2022-11-27T12:42:12.341Z,101055.25
2022-11-27T12:44:46.024Z,101063.13
2022-11-27T12:47:23.215Z,101053.00
2022-11-27T12:49:57.395Z,101060.56
2022-11-27T12:52:28.173Z,101056.13
2022-11-27T12:55:18.795Z,101036.66
2022-11-27T12:57:58.123Z,101034.53
2022-11-27T13:00:27.432Z,101011.22
2022-11-27T13:03:10.509Z,101027.63
2022-11-27T13:05:44.190Z,101023.16
2022-11-27T13:08:16.438Z,101017.28
2022-11-27T13:11:01.285Z,101028.19
2022-11-27T13:13:37.775Z,101010.78
2022-11-27T13:16:11.126Z,100982.22
2022-11-27T13:19:01.398Z,101010.78
2022-11-27T13:21:32.383Z,100982.19
2022-11-27T13:24:02.552Z,100995.00
2022-11-27T13:26:37.191Z,100970.88
2022-11-27T13:29:13.564Z,100996.94
2022-11-27T13:31:43.521Z,100989.75
2022-11-27T13:34:22.838Z,100991.41
2022-11-27T13:37:02.729Z,100998.38
2022-11-27T13:39:42.471Z,100989.59
2022-11-27T13:42:22.122Z,100979.91
2022-11-27T13:45:06.288Z,100977.88
2022-11-27T13:47:41.034Z,100954.25
2022-11-27T13:50:13.151Z,100956.91
2022-11-27T13:52:54.701Z,100967.16
2022-11-27T13:55:32.664Z,100957.41
2022-11-27T13:58:01.314Z,100957.22
2022-11-27T14:00:43.288Z,100948.44
2022-11-27T14:03:28.122Z,100944.78
2022-11-27T14:05:54.928Z,100917.88
2022-11-27T14:08:28.199Z,100935.09
2022-11-27T14:11:14.017Z,100929.09
2022-11-27T14:13:45.043Z,100938.06
2022-11-27T14:16:39.592Z,100933.84
2022-11-27T14:19:42.368Z,100925.09
2022-11-27T14:23:07.259Z,100910.22
2022-11-27T14:25:31.684Z,100878.94
2022-11-27T14:28:26.170Z,100881.34
2022-11-27T14:30:56.879Z,100872.63
2022-11-27T14:33:59.731Z,100877.03
2022-11-27T14:36:25.457Z,100867.66
2022-11-27T14:38:52.487Z,100852.94
2022-11-27T14:41:22.528Z,100857.34
2022-11-27T14:43:59.003Z,100846.16
2022-11-27T14:46:25.825Z,100847.06
2022-11-27T14:48:55.340Z,100838.38
2022-11-27T14:51:29.989Z,100834.09
2022-11-27T14:54:02.668Z,100828.19
2022-11-27T14:56:33.496Z,100849.28
2022-11-27T14:59:00.922Z,100866.09
2022-11-27T15:01:33.608Z,100861.38
2022-11-27T15:04:03.614Z,100885.78
2022-11-27T15:06:35.687Z,100860.72
2022-11-27T15:09:30.655Z,100860.50
2022-11-27T15:12:17.187Z,100855.81
2022-11-27T15:14:55.492Z,100856.75
2022-11-27T15:17:27.456Z,100854.13
2022-11-27T15:19:56.085Z,100816.72
2022-11-27T15:22:23.195Z,100840.09
2022-11-27T15:25:05.330Z,100848.00
2022-11-27T15:27:43.987Z,100844.53
2022-11-27T15:30:21.757Z,100830.47
2022-11-27T15:32:54.701Z,100824.38
2022-11-27T15:35:36.275Z,100833.16
2022-11-27T15:38:11.170Z,100832.34
2022-11-27T15:40:40.686Z,100827.13
2022-11-27T15:43:14.928Z,100817.44
2022-11-27T15:45:43.650Z,100793.19
2022-11-27T15:48:18.715Z,100820.22
2022-11-27T15:50:51.392Z,100810.50
2022-11-27T15:53:18.540Z,100809.72
2022-11-27T15:55:45.167Z,100823.78
2022-11-27T15:58:11.701Z,100837.94
2022-11-27T16:00:38.312Z,100838.31
2022-11-27T16:03:05.006Z,100834.00
2022-11-27T16:05:31.598Z,100824.28
2022-11-27T16:08:01.613Z,100825.19
2022-11-27T16:10:28.457Z,100834.13
2022-11-27T16:12:55.392Z,100850.06
2022-11-27T16:15:23.551Z,100837.06
2022-11-27T16:17:50.541Z,100832.41
2022-11-27T16:20:17.224Z,100820.16
2022-11-27T16:22:43.800Z,100814.72
2022-11-27T16:25:10.320Z,100795.47
2022-11-27T16:27:37.113Z,100807.72
2022-11-27T16:30:04.323Z,100811.34
2022-11-27T16:32:30.952Z,100789.78
2022-11-27T16:34:57.539Z,100804.59
2022-11-27T16:37:24.233Z,100797.72
2022-11-27T16:39:50.790Z,100784.63
2022-11-27T16:42:17.345Z,100783.78
2022-11-27T16:44:44.472Z,100795.94
2022-11-27T16:47:12.063Z,100776.88
2022-11-27T16:49:38.588Z,100800.50
2022-11-27T16:52:05.294Z,100802.22
2022-11-27T16:54:31.851Z,100791.88
2022-11-27T16:56:59.920Z,100791.09
2022-11-27T16:59:26.571Z,100783.22
2022-11-27T17:01:53.196Z,100777.81
2022-11-27T17:04:21.077Z,100777.66
2022-11-27T17:06:49.258Z,100724.91
2022-11-27T17:09:17.207Z,100764.59
2022-11-27T17:11:48.399Z,100762.88
2022-11-27T17:14:16.290Z,100772.56
2022-11-27T17:16:43.458Z,100757.88
2022-11-27T17:19:14.335Z,100729.25
2022-11-27T17:21:42.169Z,100744.78
2022-11-27T17:24:15.496Z,100752.56
2022-11-27T17:26:43.699Z,100725.63
2022-11-27T17:29:12.099Z,100745.50
2022-11-27T17:31:39.843Z,100745.50
2022-11-27T17:34:07.290Z,100743.00
2022-11-27T17:36:37.186Z,100729.97
2022-11-27T17:39:05.748Z,100744.91
2022-11-27T17:41:32.539Z,100748.47
2022-11-27T17:43:59.357Z,100752.00
2022-11-27T17:46:28.026Z,100750.25
2022-11-27T17:48:58.006Z,100739.00
2022-11-27T17:51:25.214Z,100719.97
2022-11-27T17:53:51.896Z,100714.41
2022-11-27T17:56:20.548Z,100692.13
2022-11-27T17:58:47.959Z,100714.66
2022-11-27T18:01:22.653Z,100718.19
2022-11-27T18:03:49.628Z,100713.84
2022-11-27T18:06:17.975Z,100712.16
2022-11-27T18:08:45.567Z,100699.81
2022-11-27T18:11:17.606Z,100663.34
2022-11-27T18:13:44.778Z,100688.41
2022-11-27T18:16:14.388Z,100677.88
2022-11-27T18:18:41.174Z,100650.34
2022-11-27T18:21:27.249Z,100681.34
2022-11-27T18:29:28.535Z,100652.34
2022-11-27T18:31:55.174Z,100633.50
2022-11-27T18:34:21.817Z,100646.44
2022-11-27T18:36:48.350Z,100643.97
2022-11-27T18:39:15.721Z,100630.91
2022-11-27T18:41:42.342Z,100631.75
2022-11-27T18:44:10.241Z,100625.66
2022-11-27T18:46:37.012Z,100632.78
2022-11-27T18:49:03.973Z,100631.03
2022-11-27T18:51:30.537Z,100631.13
2022-11-27T18:53:57.302Z,100630.28
2022-11-27T18:56:27.722Z,100632.97
2022-11-27T18:58:54.492Z,100627.72
2022-11-27T19:01:26.760Z,100615.53
2022-11-27T19:03:54.207Z,100606.22
2022-11-27T19:06:23.768Z,100622.59
2022-11-27T19:08:50.653Z,100626.28
2022-11-27T19:11:20.666Z,100625.44
2022-11-27T19:13:48.279Z,100608.94
2022-11-27T19:16:18.523Z,100612.47
2022-11-27T19:18:45.258Z,100614.22
2022-11-27T19:21:23.847Z,100624.72
2022-11-27T19:23:51.643Z,100620.22
2022-11-27T19:26:28.952Z,100622.88
2022-11-27T19:28:58.365Z,100629.06
2022-11-27T19:31:26.426Z,100613.34
2022-11-27T19:34:01.332Z,100583.78
2022-11-27T19:36:29.860Z,100606.31
2022-11-27T19:39:02.368Z,100608.16
2022-11-27T19:41:29.071Z,100601.81
2022-11-27T19:43:55.617Z,100579.94
2022-11-27T19:46:27.872Z,100550.53
2022-11-27T19:48:56.767Z,100572.09
2022-11-27T19:51:24.521Z,100563.34
2022-11-27T19:53:51.197Z,100533.97
2022-11-27T19:56:18.320Z,100534.00
2022-11-27T19:58:45.225Z,100542.56
2022-11-27T20:01:15.407Z,100540.59
2022-11-27T20:03:43.150Z,100513.63
2022-11-27T20:06:18.496Z,100517.59
2022-11-27T20:08:46.592Z,100542.00
2022-11-27T20:11:15.385Z,100558.66
2022-11-27T20:13:42.118Z,100555.19
2022-11-27T20:16:14.013Z,100535.31
2022-11-27T20:18:41.612Z,100552.00
2022-11-27T20:21:14.392Z,100553.00
2022-11-27T20:23:41.743Z,100546.97
2022-11-27T20:26:10.850Z,100556.38
2022-11-27T20:28:38.876Z,100542.25
2022-11-27T20:31:05.571Z,100531.56
2022-11-27T20:33:32.519Z,100530.75
2022-11-27T20:36:00.364Z,100517.59
2022-11-27T20:38:27.025Z,100536.03
2022-11-27T20:40:53.885Z,100547.50
2022-11-27T20:43:20.698Z,100521.31
2022-11-27T20:45:47.486Z,100534.38
2022-11-27T20:48:14.129Z,100519.66
2022-11-27T20:50:40.756Z,100523.91
2022-11-27T20:53:07.523Z,100523.91
2022-11-27T20:55:34.648Z,100521.28
2022-11-27T20:58:01.165Z,100511.78
2022-11-27T21:00:28.296Z,100522.94
2022-11-27T21:02:54.814Z,100524.53
2022-11-27T21:05:21.363Z,100519.31
2022-11-27T21:07:47.988Z,100523.75
2022-11-27T21:10:16.943Z,100506.38
2022-11-27T21:12:43.573Z,100504.81
2022-11-27T21:15:11.031Z,100488.41
2022-11-27T21:17:37.568Z,100507.50
2022-11-27T21:20:04.756Z,100511.94
2022-11-27T21:22:31.556Z,100488.34
2022-11-27T21:24:58.097Z,100491.00
2022-11-27T21:27:24.764Z,100494.47
2022-11-27T21:29:51.426Z,100493.44
2022-11-27T21:32:18.241Z,100486.38
2022-11-27T21:34:44.949Z,100484.69
2022-11-27T21:37:11.473Z,100474.22
2022-11-27T21:39:38.533Z,100470.84
2022-11-27T21:42:05.069Z,100469.13
2022-11-27T21:44:31.574Z,100475.25
2022-11-27T21:46:59.897Z,100451.19
2022-11-27T21:49:26.480Z,100465.84
2022-11-27T21:51:54.540Z,100462.50
2022-11-27T21:54:22.181Z,100465.97
2022-11-27T21:56:51.666Z,100442.56
2022-11-27T21:59:18.516Z,100438.91
2022-11-27T22:01:45.747Z,100445.53
2022-11-27T22:04:12.815Z,100429.84
2022-11-27T22:06:41.317Z,100432.50
2022-11-27T22:09:14.712Z,100429.84
2022-11-27T22:11:42.113Z,100434.94
2022-11-27T22:14:08.949Z,100430.38
2022-11-27T22:16:42.927Z,100438.19
2022-11-27T22:19:11.732Z,100447.88
2022-11-27T22:21:38.307Z,100440.34
2022-11-27T22:24:05.023Z,100442.22
2022-11-27T22:26:31.683Z,100431.16
2022-11-27T22:28:58.675Z,100434.50
2022-11-27T22:31:30.278Z,100414.88
2022-11-27T22:33:57.601Z,100413.88
2022-11-27T22:36:35.103Z,100439.94
2022-11-27T22:39:05.021Z,100437.44
2022-11-27T22:41:35.316Z,100408.19
2022-11-27T22:44:11.570Z,100428.09
2022-11-27T22:46:42.437Z,100428.03
2022-11-27T22:49:11.471Z,100437.66
2022-11-27T22:51:38.557Z,100447.22
2022-11-27T22:54:07.160Z,100436.03
2022-11-27T22:56:34.284Z,100434.28
2022-11-27T22:59:30.341Z,100413.63
2022-11-27T23:01:48.732Z,100425.44
2022-11-27T23:04:15.600Z,100418.53
2022-11-27T23:06:42.212Z,100412.50
2022-11-27T23:09:09.564Z,100406.31
2022-11-27T23:11:36.103Z,100409.72
2022-11-27T23:14:03.424Z,100411.41
2022-11-27T23:16:30.259Z,100398.34
2022-11-27T23:18:57.376Z,100394.00
2022-11-27T23:21:24.693Z,100383.47
2022-11-27T23:23:51.626Z,100379.19
2022-11-27T23:26:20.805Z,100381.69
2022-11-27T23:28:49.753Z,100374.63
2022-11-27T23:31:36.480Z,100379.97
2022-11-27T23:34:07.199Z,100357.31
2022-11-27T23:36:34.186Z,100371.97
2022-11-27T23:39:01.445Z,100346.00
2022-11-27T23:41:27.975Z,100379.09
2022-11-27T23:43:55.369Z,100380.94
2022-11-27T23:46:26.210Z,100374.91
2022-11-27T23:48:57.757Z,100370.56
2022-11-27T23:51:27.276Z,100369.66
2022-11-27T23:53:54.309Z,100376.63
2022-11-27T23:56:26.059Z,100374.03
2022-11-27T23:58:54.112Z,100362.63
